createdAt,value
2023-02-05T00:01:50.430Z,47.55
2023-02-05T00:04:18.459Z,47.70
2023-02-05T00:06:46.456Z,47.81
2023-02-05T00:09:14.287Z,47.69
2023-02-05T00:11:42.106Z,47.91
2023-02-05T00:14:10.884Z,48.30
2023-02-05T00:16:40.069Z,48.15
2023-02-05T00:19:08.042Z,48.37
2023-02-05T00:21:36.357Z,48.09
2023-02-05T00:24:04.464Z,47.93
2023-02-05T00:26:32.360Z,47.75
2023-02-05T00:29:00.413Z,47.83
2023-02-05T00:31:29.026Z,48.06
2023-02-05T00:34:00.864Z,47.99
2023-02-05T00:36:28.808Z,48.05
2023-02-05T00:38:57.109Z,48.33
2023-02-05T00:41:25.260Z,48.67
2023-02-05T00:43:53.175Z,48.27
2023-02-05T00:46:21.150Z,48.77
2023-02-05T00:48:49.103Z,48.67
2023-02-05T00:51:18.415Z,48.92
2023-02-05T00:53:46.269Z,48.78
2023-02-05T00:56:14.652Z,48.73
2023-02-05T00:58:47.382Z,48.68
2023-02-05T01:01:15.883Z,48.95
2023-02-05T01:03:44.492Z,48.65
2023-02-05T01:06:13.385Z,48.48
2023-02-05T01:08:42.766Z,48.89
2023-02-05T01:11:11.516Z,48.66
2023-02-05T01:13:40.346Z,49.20
2023-02-05T01:16:10.327Z,48.86
2023-02-05T01:18:38.348Z,48.69
2023-02-05T01:21:06.471Z,48.55
2023-02-05T01:23:34.298Z,48.32
2023-02-05T01:26:03.512Z,48.43
2023-02-05T01:28:31.329Z,48.23
2023-02-05T01:30:59.262Z,48.72
2023-02-05T01:33:27.126Z,48.47
2023-02-05T01:35:54.892Z,48.20
2023-02-05T01:38:22.695Z,48.75
2023-02-05T01:40:50.508Z,48.79
2023-02-05T01:43:20.142Z,49.27
2023-02-05T01:46:12.289Z,49.67
2023-02-05T01:48:45.014Z,49.09
2023-02-05T01:51:17.044Z,49.49
2023-02-05T01:53:47.178Z,49.14
2023-02-05T01:56:20.940Z,49.46
2023-02-05T01:58:55.623Z,49.78
2023-02-05T02:01:24.069Z,49.39
2023-02-05T02:03:54.673Z,49.30
2023-02-05T02:06:22.497Z,49.37
2023-02-05T02:08:50.297Z,49.43
2023-02-05T02:11:20.833Z,49.62
2023-02-05T02:13:52.926Z,49.52
2023-02-05T02:16:21.478Z,49.31
2023-02-05T02:18:49.591Z,49.34
2023-02-05T02:21:39.992Z,49.88
2023-02-05T02:24:31.429Z,50.15
2023-02-05T02:27:19.228Z,50.30
2023-02-05T02:29:56.437Z,50.03
2023-02-05T02:32:31.349Z,49.99
2023-02-05T02:35:08.284Z,50.54
2023-02-05T02:37:41.020Z,49.84
2023-02-05T02:40:15.013Z,50.21
2023-02-05T02:42:48.594Z,50.13
2023-02-05T02:45:21.229Z,50.08
2023-02-05T02:47:53.680Z,49.99
2023-02-05T02:50:26.967Z,50.49
2023-02-05T02:52:56.893Z,49.73
2023-02-05T02:55:26.645Z,50.28
2023-02-05T02:57:57.070Z,50.40
2023-02-05T03:00:29.695Z,50.52
2023-02-05T03:03:03.812Z,50.61
2023-02-05T03:05:33.429Z,50.47
2023-02-05T03:08:07.670Z,50.71
2023-02-05T03:10:42.575Z,50.42
2023-02-05T03:13:12.178Z,50.24
2023-02-05T03:15:46.378Z,50.71
2023-02-05T03:18:16.766Z,50.44
2023-02-05T03:20:50.739Z,50.74
2023-02-05T03:23:19.661Z,50.46
2023-02-05T03:25:47.539Z,50.31
2023-02-05T03:28:18.049Z,50.25
2023-02-05T03:30:55.611Z,50.68
2023-02-05T03:33:46.949Z,51.26
2023-02-05T03:36:24.942Z,50.72
2023-02-05T03:39:08.260Z,50.70
2023-02-05T03:41:57.365Z,50.58
2023-02-05T03:45:05.787Z,51.10
2023-02-05T03:47:52.885Z,51.11
2023-02-05T03:50:26.131Z,50.73
2023-02-05T03:53:02.320Z,50.70
2023-02-05T03:55:34.829Z,50.54
2023-02-05T03:58:09.343Z,50.78
2023-02-05T04:00:38.676Z,50.30
2023-02-05T04:03:08.330Z,50.68
2023-02-05T04:05:37.443Z,50.48
2023-02-05T04:08:05.867Z,50.43
2023-02-05T04:10:40.126Z,50.40
2023-02-05T04:13:07.969Z,50.45
2023-02-05T04:15:36.852Z,50.39
2023-02-05T04:18:10.084Z,50.42
2023-02-05T04:20:38.025Z,50.79
2023-02-05T04:23:07.775Z,50.50
2023-02-05T04:25:37.500Z,50.53
2023-02-05T04:28:07.613Z,50.81
2023-02-05T04:30:35.682Z,50.36
2023-02-05T04:33:04.999Z,50.69
2023-02-05T04:35:34.772Z,50.49
2023-02-05T04:38:03.057Z,50.71
2023-02-05T04:40:30.988Z,50.45
2023-02-05T04:42:58.816Z,50.59
2023-02-05T04:45:31.015Z,50.49
2023-02-05T04:47:59.557Z,50.70
2023-02-05T04:50:27.946Z,50.47
2023-02-05T04:52:57.124Z,50.72
2023-02-05T04:55:24.877Z,50.86
2023-02-05T04:57:52.904Z,50.73
2023-02-05T05:00:21.241Z,50.97
2023-02-05T05:02:49.046Z,51.09
2023-02-05T05:05:17.162Z,51.04
2023-02-05T05:07:45.019Z,51.03
2023-02-05T05:10:14.211Z,51.26
2023-02-05T05:12:42.013Z,51.21
2023-02-05T05:15:10.265Z,51.33
2023-02-05T05:17:38.034Z,51.19
2023-02-05T05:20:06.442Z,51.57
2023-02-05T05:22:34.779Z,51.66
2023-02-05T05:25:02.581Z,51.55
2023-02-05T05:27:31.739Z,51.65
2023-02-05T05:29:59.516Z,51.41
2023-02-05T05:32:27.363Z,51.81
2023-02-05T05:34:57.060Z,51.75
2023-02-05T05:37:24.979Z,51.61
2023-02-05T05:40:10.012Z,51.59
2023-02-05T05:42:57.429Z,51.99
2023-02-05T05:45:25.515Z,51.56
2023-02-05T05:47:53.324Z,51.71
2023-02-05T05:50:21.310Z,51.41
2023-02-05T05:52:49.057Z,51.80
2023-02-05T05:55:16.987Z,51.60
2023-02-05T05:57:46.128Z,51.93
2023-02-05T06:00:15.342Z,51.99
2023-02-05T06:02:44.713Z,51.56
2023-02-05T06:05:14.170Z,52.13
2023-02-05T06:07:41.962Z,51.80
2023-02-05T06:10:10.264Z,51.50
2023-02-05T06:12:38.045Z,51.88
2023-02-05T06:15:08.505Z,51.90
2023-02-05T06:17:36.285Z,52.03
2023-02-05T06:20:04.225Z,52.08
2023-02-05T06:22:31.980Z,52.18
2023-02-05T06:24:59.734Z,52.11
2023-02-05T06:27:27.543Z,52.03
2023-02-05T06:29:55.364Z,52.16
2023-02-05T06:32:26.742Z,51.79
2023-02-05T06:34:54.760Z,52.03
2023-02-05T06:37:34.195Z,51.90
2023-02-05T06:40:15.616Z,51.96
2023-02-05T06:42:43.857Z,51.80
2023-02-05T06:45:12.352Z,51.87
2023-02-05T06:47:41.547Z,52.07
2023-02-05T06:50:10.066Z,51.63
2023-02-05T06:52:38.217Z,52.13
2023-02-05T06:55:06.808Z,52.10
2023-02-05T06:57:34.585Z,52.13
2023-02-05T07:00:02.400Z,52.21
2023-02-05T07:02:30.202Z,51.85
2023-02-05T07:04:59.349Z,51.94
2023-02-05T07:07:27.135Z,51.67
2023-02-05T07:09:55.208Z,51.86
2023-02-05T07:12:24.113Z,51.90
2023-02-05T07:14:51.861Z,52.21
2023-02-05T07:17:20.868Z,51.85
2023-02-05T07:19:48.769Z,51.85
2023-02-05T07:22:17.921Z,51.70
2023-02-05T07:24:45.741Z,51.92
2023-02-05T07:27:13.638Z,52.00
2023-02-05T07:29:41.492Z,52.17
2023-02-05T07:32:09.542Z,52.12
2023-02-05T07:34:37.463Z,51.81
2023-02-05T07:37:05.209Z,52.10
2023-02-05T07:39:34.454Z,52.14
2023-02-05T07:42:02.262Z,52.08
2023-02-05T07:44:38.390Z,51.76
2023-02-05T07:47:06.321Z,51.73
2023-02-05T07:49:34.179Z,51.92
2023-02-05T07:52:02.011Z,51.85
2023-02-05T07:54:29.871Z,51.90
2023-02-05T07:57:00.134Z,51.96
2023-02-05T07:59:28.340Z,52.32
2023-02-05T08:01:56.098Z,51.99
2023-02-05T08:04:23.961Z,52.27
2023-02-05T08:06:51.820Z,51.99
2023-02-05T08:09:19.738Z,51.87
2023-02-05T08:11:47.596Z,52.12
2023-02-05T08:14:16.992Z,51.93
2023-02-05T08:16:44.753Z,51.99
2023-02-05T08:19:16.154Z,51.95
2023-02-05T08:21:44.337Z,51.71
2023-02-05T08:24:12.170Z,52.28
2023-02-05T08:26:40.419Z,51.95
2023-02-05T08:29:08.853Z,52.23
2023-02-05T08:31:38.801Z,52.07
2023-02-05T08:34:06.873Z,52.34
2023-02-05T08:36:34.744Z,52.07
2023-02-05T08:39:02.522Z,52.19
2023-02-05T08:41:30.420Z,51.99
2023-02-05T08:43:58.201Z,52.36
2023-02-05T08:46:31.545Z,52.09
2023-02-05T08:49:06.601Z,51.84
2023-02-05T08:51:35.694Z,51.80
2023-02-05T08:54:03.689Z,51.82
2023-02-05T08:56:31.808Z,51.33
2023-02-05T08:58:59.614Z,51.10
2023-02-05T09:01:27.403Z,51.50
2023-02-05T09:03:55.280Z,51.14
2023-02-05T09:06:24.630Z,50.89
2023-02-05T09:08:52.566Z,51.39
2023-02-05T09:11:21.937Z,51.25
2023-02-05T09:13:49.804Z,51.29
2023-02-05T09:16:17.577Z,50.95
2023-02-05T09:18:45.717Z,50.98
2023-02-05T09:21:14.729Z,50.87
2023-02-05T09:23:43.951Z,51.29
2023-02-05T09:26:11.761Z,50.95
2023-02-05T09:28:39.618Z,51.00
2023-02-05T09:31:09.274Z,50.86
2023-02-05T09:33:37.550Z,50.71
2023-02-05T09:36:09.621Z,50.90
2023-02-05T09:38:37.860Z,50.73
2023-02-05T09:41:16.165Z,50.84
2023-02-05T09:43:51.744Z,50.65
2023-02-05T09:46:27.952Z,50.59
2023-02-05T09:49:00.810Z,50.86
2023-02-05T09:51:34.840Z,50.79
2023-02-05T09:54:12.961Z,50.64
2023-02-05T09:56:43.968Z,50.60
2023-02-05T09:59:17.152Z,50.93
2023-02-05T10:01:49.046Z,50.81
2023-02-05T10:04:17.112Z,50.58
2023-02-05T10:07:17.079Z,50.67
2023-02-05T10:10:00.953Z,50.76
2023-02-05T10:12:43.136Z,51.03
2023-02-05T10:15:26.761Z,51.13
2023-02-05T10:18:09.201Z,50.99
2023-02-05T10:20:53.151Z,50.93
2023-02-05T10:23:36.105Z,51.08
2023-02-05T10:26:10.936Z,50.98
2023-02-05T10:28:56.093Z,51.20
2023-02-05T10:31:29.131Z,51.07
2023-02-05T10:34:03.989Z,51.68
2023-02-05T10:36:32.248Z,50.98
2023-02-05T10:39:01.609Z,50.69
2023-02-05T10:41:36.751Z,50.82
2023-02-05T10:44:13.358Z,51.23
2023-02-05T10:46:42.799Z,50.99
2023-02-05T10:49:16.400Z,51.12
2023-02-05T10:51:46.379Z,51.01
2023-02-05T10:54:21.562Z,51.06
2023-02-05T10:56:49.570Z,51.25
2023-02-05T10:59:23.617Z,51.28
2023-02-05T11:01:52.572Z,51.07
2023-02-05T11:04:27.784Z,51.17
2023-02-05T11:06:55.869Z,51.37
2023-02-05T11:09:35.554Z,51.05
2023-02-05T11:12:06.299Z,50.84
2023-02-05T11:14:37.931Z,51.39
2023-02-05T11:17:11.419Z,51.34
2023-02-05T11:19:39.540Z,51.19
2023-02-05T11:22:07.338Z,51.47
2023-02-05T11:24:39.469Z,51.05
2023-02-05T11:27:28.873Z,51.38
2023-02-05T11:30:01.099Z,51.47
2023-02-05T11:32:36.194Z,51.55
2023-02-05T11:35:19.090Z,51.56
2023-02-05T11:37:49.841Z,51.57
2023-02-05T11:40:22.629Z,51.46
2023-02-05T11:43:01.417Z,51.40
2023-02-05T11:45:32.541Z,51.49
2023-02-05T11:48:05.150Z,51.38
2023-02-05T11:50:34.459Z,51.25
2023-02-05T11:53:16.409Z,51.42
2023-02-05T11:55:45.625Z,51.23
2023-02-05T11:58:36.154Z,51.30
2023-02-05T12:01:21.942Z,51.29
2023-02-05T12:04:00.190Z,51.23
2023-02-05T12:06:34.735Z,51.00
2023-02-05T12:09:03.383Z,51.10
2023-02-05T12:12:00.204Z,51.09
2023-02-05T12:14:39.364Z,51.26
2023-02-05T12:17:24.742Z,51.06
2023-02-05T12:19:59.540Z,51.41
2023-02-05T12:22:45.574Z,51.38
2023-02-05T12:25:21.792Z,51.23
2023-02-05T12:28:04.815Z,51.24
2023-02-05T12:30:39.381Z,51.61
2023-02-05T12:33:28.599Z,51.43
2023-02-05T12:36:08.293Z,50.98
2023-02-05T12:38:49.278Z,50.92
2023-02-05T12:41:27.659Z,51.11
2023-02-05T12:44:04.198Z,51.30
2023-02-05T12:46:46.169Z,51.47
2023-02-05T12:49:29.035Z,51.00
2023-02-05T12:52:15.034Z,51.03
2023-02-05T12:54:55.912Z,51.08
2023-02-05T12:57:27.635Z,51.44
2023-02-05T13:00:02.082Z,50.75
2023-02-05T13:02:36.358Z,50.93
2023-02-05T13:05:16.916Z,51.00
2023-02-05T13:07:49.234Z,50.85
2023-02-05T13:10:19.794Z,50.82
2023-02-05T13:12:54.084Z,50.86
2023-02-05T13:15:24.337Z,50.72
2023-02-05T13:18:00.691Z,50.82
2023-02-05T13:20:51.343Z,50.58
2023-02-05T13:23:37.790Z,50.78
2023-02-05T13:26:24.734Z,50.29
2023-02-05T13:28:55.121Z,50.60
2023-02-05T13:31:31.511Z,50.17
2023-02-05T13:34:04.863Z,50.25
2023-02-05T13:37:15.018Z,50.14
2023-02-05T13:40:19.765Z,49.65
2023-02-05T13:43:20.971Z,49.84
2023-02-05T13:46:18.900Z,49.93
2023-02-05T13:49:23.398Z,49.71
2023-02-05T13:52:25.184Z,49.54
2023-02-05T13:55:26.271Z,49.61
2023-02-05T13:58:14.757Z,49.84
2023-02-05T14:00:45.477Z,50.21
2023-02-05T14:03:34.954Z,49.29
2023-02-05T14:06:24.115Z,49.09
2023-02-05T14:08:57.389Z,49.69
2023-02-05T14:11:26.962Z,49.29
2023-02-05T14:14:26.676Z,48.57
2023-02-05T14:16:56.021Z,49.42
2023-02-05T14:19:26.952Z,49.44
2023-02-05T14:22:07.322Z,49.09
2023-02-05T14:24:42.303Z,48.48
2023-02-05T14:27:52.296Z,48.66
2023-02-05T14:30:53.013Z,48.75
2023-02-05T14:33:38.840Z,48.90
2023-02-05T14:36:43.442Z,48.36
2023-02-05T14:39:23.062Z,48.46
2023-02-05T14:41:55.931Z,49.03
2023-02-05T14:44:28.537Z,48.86
2023-02-05T14:47:07.181Z,48.25
2023-02-05T14:49:42.845Z,48.25
2023-02-05T14:52:28.034Z,48.06
2023-02-05T14:55:01.546Z,48.76
2023-02-05T14:57:36.525Z,48.89
2023-02-05T15:00:08.818Z,48.90
2023-02-05T15:03:08.425Z,48.33
2023-02-05T15:05:42.352Z,48.83
2023-02-05T15:08:15.614Z,49.20
2023-02-05T15:10:48.772Z,49.09
2023-02-05T15:13:18.342Z,49.25
2023-02-05T15:16:24.830Z,48.49
2023-02-05T15:18:57.462Z,49.26
2023-02-05T15:21:29.599Z,49.01
2023-02-05T15:24:02.538Z,49.36
2023-02-05T15:26:40.725Z,49.59
2023-02-05T15:29:14.737Z,49.38
2023-02-05T15:31:47.092Z,49.31
2023-02-05T15:34:30.854Z,48.74
2023-02-05T15:37:05.071Z,49.02
2023-02-05T15:39:42.307Z,49.22
2023-02-05T15:42:16.746Z,49.08
2023-02-05T15:44:44.978Z,49.09
2023-02-05T15:47:19.225Z,48.96
2023-02-05T15:49:51.604Z,49.09
2023-02-05T15:52:23.724Z,48.84
2023-02-05T15:54:54.348Z,48.84
2023-02-05T15:57:26.064Z,48.50
2023-02-05T15:59:55.446Z,48.63
2023-02-05T16:02:26.218Z,48.34
2023-02-05T16:04:58.245Z,48.22
2023-02-05T16:07:27.954Z,48.44
2023-02-05T16:09:58.637Z,48.47
2023-02-05T16:12:27.185Z,48.57
2023-02-05T16:15:02.599Z,47.85
2023-02-05T16:17:37.056Z,48.25
2023-02-05T16:20:18.571Z,48.46
2023-02-05T16:22:49.371Z,48.63
2023-02-05T16:25:31.443Z,48.38
2023-02-05T16:28:01.897Z,48.96
2023-02-05T16:30:34.408Z,48.98
2023-02-05T16:33:05.378Z,48.83
2023-02-05T16:35:38.769Z,49.12
2023-02-05T16:38:09.375Z,48.95
2023-02-05T16:40:43.070Z,49.05
2023-02-05T16:43:31.693Z,48.95
2023-02-05T16:46:25.705Z,48.78
2023-02-05T16:48:55.462Z,49.34
2023-02-05T16:51:40.596Z,48.82
2023-02-05T16:54:33.901Z,48.97
2023-02-05T16:57:10.301Z,48.04
2023-02-05T16:59:52.745Z,47.96
2023-02-05T17:02:29.622Z,47.71
2023-02-05T17:04:59.136Z,48.22
2023-02-05T17:07:29.369Z,48.25
2023-02-05T17:10:17.507Z,47.20
2023-02-05T17:12:52.403Z,47.42
2023-02-05T17:15:29.953Z,47.65
2023-02-05T17:18:04.435Z,47.58
2023-02-05T17:20:34.389Z,48.10
2023-02-05T17:23:11.719Z,46.88
2023-02-05T17:25:42.037Z,47.67
2023-02-05T17:28:16.781Z,46.60
2023-02-05T17:30:46.311Z,47.29
2023-02-05T17:33:17.906Z,46.95
2023-02-05T17:35:45.991Z,47.43
2023-02-05T17:38:15.905Z,46.85
2023-02-05T17:40:44.278Z,47.30
2023-02-05T17:43:12.066Z,47.06
2023-02-05T17:45:41.430Z,46.98
2023-02-05T17:48:10.052Z,46.92
2023-02-05T17:50:38.600Z,46.96
2023-02-05T17:53:06.706Z,46.53
2023-02-05T17:55:35.959Z,46.42
2023-02-05T17:58:03.800Z,46.45
2023-02-05T18:00:32.921Z,46.53
2023-02-05T18:03:00.912Z,46.54
2023-02-05T18:05:28.800Z,46.32
2023-02-05T18:07:58.689Z,46.18
2023-02-05T18:10:28.743Z,45.94
2023-02-05T18:12:57.983Z,46.49
2023-02-05T18:15:26.926Z,46.27
2023-02-05T18:17:54.804Z,46.60
2023-02-05T18:20:22.738Z,46.72
2023-02-05T18:22:50.781Z,46.51
2023-02-05T18:25:18.752Z,46.60
2023-02-05T18:27:47.543Z,46.42
2023-02-05T18:30:16.979Z,46.39
2023-02-05T18:32:44.819Z,46.76
2023-02-05T18:35:14.774Z,46.53
2023-02-05T18:37:43.655Z,46.34
2023-02-05T18:40:13.551Z,46.27
2023-02-05T18:42:41.602Z,46.64
2023-02-05T18:45:10.742Z,46.45
2023-02-05T18:47:40.171Z,46.13
2023-02-05T18:50:10.269Z,46.68
2023-02-05T18:52:38.692Z,46.28
2023-02-05T18:55:07.673Z,46.46
2023-02-05T18:57:35.648Z,46.72
2023-02-05T19:00:03.602Z,46.21
2023-02-05T19:02:33.652Z,46.22
2023-02-05T19:05:04.227Z,46.64
2023-02-05T19:07:32.106Z,46.14
2023-02-05T19:10:00.110Z,46.31
2023-02-05T19:12:27.915Z,46.22
2023-02-05T19:14:55.988Z,46.51
2023-02-05T19:17:27.284Z,46.53
2023-02-05T19:19:55.660Z,46.53
2023-02-05T19:22:24.847Z,46.23
2023-02-05T19:24:52.917Z,45.97
2023-02-05T19:27:20.900Z,46.19
2023-02-05T19:29:50.306Z,46.45
2023-02-05T19:32:18.098Z,46.38
2023-02-05T19:34:46.650Z,45.91
2023-02-05T19:37:14.633Z,46.29
2023-02-05T19:39:43.853Z,46.18
2023-02-05T19:42:11.747Z,46.34
2023-02-05T19:44:39.635Z,46.30
2023-02-05T19:47:08.499Z,46.10
2023-02-05T19:49:36.564Z,46.34
2023-02-05T19:52:05.327Z,46.01
2023-02-05T19:54:33.263Z,46.06
2023-02-05T19:57:02.776Z,46.19
2023-02-05T19:59:30.573Z,45.98
2023-02-05T20:01:58.439Z,46.20
2023-02-05T20:04:28.715Z,46.39
2023-02-05T20:06:58.180Z,46.15
2023-02-05T20:09:27.294Z,46.68
2023-02-05T20:11:55.723Z,46.38
2023-02-05T20:14:25.481Z,46.56
2023-02-05T20:16:53.723Z,46.50
2023-02-05T20:19:21.918Z,46.69
2023-02-05T20:21:49.986Z,46.59
2023-02-05T20:24:17.884Z,46.18
2023-02-05T20:26:48.278Z,46.11
2023-02-05T20:29:33.906Z,46.11
2023-02-05T20:32:03.167Z,46.44
2023-02-05T20:34:34.052Z,46.50
2023-02-05T20:37:05.594Z,46.30
2023-02-05T20:39:35.308Z,46.52
2023-02-05T20:42:03.779Z,46.40
2023-02-05T20:44:33.768Z,46.43
2023-02-05T20:47:03.196Z,46.13
2023-02-05T20:49:31.054Z,46.52
2023-02-05T20:51:59.049Z,46.18
2023-02-05T20:54:26.879Z,46.53
2023-02-05T20:56:56.988Z,46.40
2023-02-05T20:59:24.934Z,46.40
2023-02-05T21:01:52.986Z,46.61
2023-02-05T21:04:22.677Z,46.12
2023-02-05T21:06:50.560Z,46.40
2023-02-05T21:09:18.394Z,46.26
2023-02-05T21:11:46.221Z,46.17
2023-02-05T21:14:14.150Z,46.19
2023-02-05T21:16:41.949Z,46.16
2023-02-05T21:19:10.314Z,46.00
2023-02-05T21:21:40.864Z,46.29
2023-02-05T21:24:12.298Z,46.27
2023-02-05T21:26:42.164Z,46.44
2023-02-05T21:29:11.691Z,46.52
2023-02-05T21:31:41.743Z,46.15
2023-02-05T21:34:11.899Z,46.03
2023-02-05T21:36:41.396Z,46.12
2023-02-05T21:39:10.597Z,46.19
2023-02-05T21:41:38.646Z,46.26
2023-02-05T21:44:06.519Z,46.44
2023-02-05T21:46:34.772Z,46.27
2023-02-05T21:49:04.084Z,46.44
2023-02-05T21:51:33.992Z,46.11
2023-02-05T21:54:05.493Z,46.38
2023-02-05T21:56:35.493Z,46.47
2023-02-05T21:59:03.479Z,46.36
2023-02-05T22:01:33.114Z,46.17
2023-02-05T22:04:02.540Z,46.27
2023-02-05T22:06:32.369Z,46.20
2023-02-05T22:09:01.464Z,46.30
2023-02-05T22:11:30.704Z,45.97
2023-02-05T22:13:58.516Z,46.34
2023-02-05T22:16:27.985Z,46.21
2023-02-05T22:18:58.352Z,46.38
2023-02-05T22:21:28.242Z,46.31
2023-02-05T22:23:57.484Z,46.27
2023-02-05T22:26:28.344Z,46.18
2023-02-05T22:28:59.311Z,46.19
2023-02-05T22:31:29.512Z,45.98
2023-02-05T22:33:58.038Z,46.15
2023-02-05T22:36:27.862Z,46.21
2023-02-05T22:38:56.335Z,46.09
2023-02-05T22:41:26.323Z,46.32
2023-02-05T22:43:55.444Z,46.06
2023-02-05T22:46:26.678Z,46.08
2023-02-05T22:48:55.425Z,46.51
2023-02-05T22:51:27.019Z,46.12
2023-02-05T22:53:55.635Z,46.12
2023-02-05T22:56:24.161Z,46.22
2023-02-05T22:58:53.631Z,46.11
2023-02-05T23:01:24.781Z,46.22
2023-02-05T23:03:52.913Z,46.24
2023-02-05T23:06:23.580Z,46.20
2023-02-05T23:08:52.524Z,46.39
2023-02-05T23:11:20.819Z,46.19
2023-02-05T23:13:49.030Z,46.48
2023-02-05T23:16:19.352Z,46.18
2023-02-05T23:18:49.635Z,46.39
2023-02-05T23:21:20.472Z,46.40
2023-02-05T23:23:49.719Z,46.34
2023-02-05T23:26:19.865Z,46.34
2023-02-05T23:28:48.339Z,46.70
2023-02-05T23:31:16.714Z,46.23
2023-02-05T23:33:44.838Z,46.30
2023-02-05T23:36:14.641Z,46.30
2023-02-05T23:38:42.723Z,46.51
2023-02-05T23:41:12.198Z,46.31
2023-02-05T23:43:40.319Z,46.76
2023-02-05T23:46:08.712Z,46.52
2023-02-05T23:48:36.958Z,46.47
2023-02-05T23:51:04.798Z,46.44
2023-02-05T23:53:34.015Z,46.21
2023-02-05T23:56:01.993Z,46.50
2023-02-05T23:58:29.874Z,46.49
